sensor_id;sensor_type;location;lat;lon;timestamp;pressure;altitude;pressure_sealevel;temperature;humidity
15604;BME280;7902;49.042;9.092;2023-03-13T00:01:22;98598.44;;;11.56;58.06
15604;BME280;7902;49.042;9.092;2023-03-13T00:03:49;98602.09;;;11.65;57.85
15604;BME280;7902;49.042;9.092;2023-03-13T00:06:15;98602.59;;;11.59;57.99
15604;BME280;7902;49.042;9.092;2023-03-13T00:08:42;98594.97;;;11.56;58.08
15604;BME280;7902;49.042;9.092;2023-03-13T00:11:10;98590.56;;;11.56;58.31
15604;BME280;7902;49.042;9.092;2023-03-13T00:13:37;98587.88;;;11.47;58.87
15604;BME280;7902;49.042;9.092;2023-03-13T00:16:05;98587.38;;;11.53;57.77
15604;BME280;7902;49.042;9.092;2023-03-13T00:18:32;98582.34;;;11.50;58.82
15604;BME280;7902;49.042;9.092;2023-03-13T00:21:04;98588.19;;;11.53;57.63
15604;BME280;7902;49.042;9.092;2023-03-13T00:23:31;98575.75;;;11.55;59.28
15604;BME280;7902;49.042;9.092;2023-03-13T00:25:59;98577.69;;;11.53;58.01
15604;BME280;7902;49.042;9.092;2023-03-13T00:28:29;98570.94;;;11.60;58.37
15604;BME280;7902;49.042;9.092;2023-03-13T00:31:00;98561.91;;;11.53;58.64
15604;BME280;7902;49.042;9.092;2023-03-13T00:33:26;98549.97;;;11.49;58.49
15604;BME280;7902;49.042;9.092;2023-03-13T00:35:57;98554.97;;;11.52;58.69
15604;BME280;7902;49.042;9.092;2023-03-13T00:38:22;98554.25;;;11.50;58.54
15604;BME280;7902;49.042;9.092;2023-03-13T00:40:48;98547.47;;;11.48;58.80
15604;BME280;7902;49.042;9.092;2023-03-13T00:43:14;98548.31;;;11.48;58.67
15604;BME280;7902;49.042;9.092;2023-03-13T00:45:40;98547.03;;;11.42;58.88
15604;BME280;7902;49.042;9.092;2023-03-13T00:48:06;98540.56;;;11.47;58.34
15604;BME280;7902;49.042;9.092;2023-03-13T00:50:32;98543.56;;;11.42;58.63
15604;BME280;7902;49.042;9.092;2023-03-13T00:52:58;98534.47;;;11.46;59.07
15604;BME280;7902;49.042;9.092;2023-03-13T00:55:24;98534.97;;;11.40;59.09
15604;BME280;7902;49.042;9.092;2023-03-13T00:57:50;98526.69;;;11.44;59.02
15604;BME280;7902;49.042;9.092;2023-03-13T01:00:16;98529.47;;;11.43;59.11
15604;BME280;7902;49.042;9.092;2023-03-13T01:02:42;98517.84;;;11.45;58.99
15604;BME280;7902;49.042;9.092;2023-03-13T01:05:09;98519.78;;;11.43;58.83
15604;BME280;7902;49.042;9.092;2023-03-13T01:07:35;98509.56;;;11.50;59.21
15604;BME280;7902;49.042;9.092;2023-03-13T01:10:00;98507.66;;;11.52;59.32
15604;BME280;7902;49.042;9.092;2023-03-13T01:12:26;98511.13;;;11.53;58.60
15604;BME280;7902;49.042;9.092;2023-03-13T01:14:52;98498.38;;;11.48;59.44
15604;BME280;7902;49.042;9.092;2023-03-13T01:17:18;98498.66;;;11.55;58.84
15604;BME280;7902;49.042;9.092;2023-03-13T01:19:44;98493.69;;;11.52;58.20
15604;BME280;7902;49.042;9.092;2023-03-13T01:22:10;98490.94;;;11.53;58.36
15604;BME280;7902;49.042;9.092;2023-03-13T01:24:37;98492.72;;;11.53;57.99
15604;BME280;7902;49.042;9.092;2023-03-13T01:27:03;98482.63;;;11.58;57.69
15604;BME280;7902;49.042;9.092;2023-03-13T01:29:29;98480.91;;;11.47;58.99
15604;BME280;7902;49.042;9.092;2023-03-13T01:31:54;98475.28;;;11.52;57.93
15604;BME280;7902;49.042;9.092;2023-03-13T01:34:20;98476.38;;;11.59;57.54
15604;BME280;7902;49.042;9.092;2023-03-13T01:36:46;98471.16;;;11.68;57.75
15604;BME280;7902;49.042;9.092;2023-03-13T01:39:15;98467.28;;;11.63;58.04
15604;BME280;7902;49.042;9.092;2023-03-13T01:41:41;98463.63;;;11.54;58.94
15604;BME280;7902;49.042;9.092;2023-03-13T01:44:22;98452.91;;;11.67;57.65
15604;BME280;7902;49.042;9.092;2023-03-13T01:46:49;98447.78;;;11.65;57.14
15604;BME280;7902;49.042;9.092;2023-03-13T01:49:20;98456.06;;;11.61;58.61
15604;BME280;7902;49.042;9.092;2023-03-13T01:51:53;98445.28;;;11.64;57.29
15604;BME280;7902;49.042;9.092;2023-03-13T01:54:23;98444.03;;;11.68;55.78
15604;BME280;7902;49.042;9.092;2023-03-13T01:56:54;98438.66;;;11.69;56.61
15604;BME280;7902;49.042;9.092;2023-03-13T01:59:27;98430.75;;;11.69;56.07
15604;BME280;7902;49.042;9.092;2023-03-13T02:01:58;98423.59;;;11.71;56.13
15604;BME280;7902;49.042;9.092;2023-03-13T02:04:27;98420.00;;;11.72;56.63
15604;BME280;7902;49.042;9.092;2023-03-13T02:06:57;98413.66;;;11.75;56.30
15604;BME280;7902;49.042;9.092;2023-03-13T02:09:28;98417.00;;;11.77;55.88
15604;BME280;7902;49.042;9.092;2023-03-13T02:12:16;98411.84;;;11.75;56.24
15604;BME280;7902;49.042;9.092;2023-03-13T02:14:45;98415.31;;;11.76;56.53
15604;BME280;7902;49.042;9.092;2023-03-13T02:17:12;98400.38;;;11.76;56.48
15604;BME280;7902;49.042;9.092;2023-03-13T02:19:46;98400.75;;;11.72;56.43
15604;BME280;7902;49.042;9.092;2023-03-13T02:25:02;98395.38;;;11.73;55.99
15604;BME280;7902;49.042;9.092;2023-03-13T02:27:33;98387.06;;;11.78;56.04
15604;BME280;7902;49.042;9.092;2023-03-13T02:29:59;98382.09;;;11.75;56.26
15604;BME280;7902;49.042;9.092;2023-03-13T02:32:26;98385.16;;;11.80;55.72
15604;BME280;7902;49.042;9.092;2023-03-13T02:34:55;98376.97;;;11.73;57.14
15604;BME280;7902;49.042;9.092;2023-03-13T02:37:23;98373.75;;;11.70;57.15
15604;BME280;7902;49.042;9.092;2023-03-13T02:39:50;98361.88;;;11.75;56.74
15604;BME280;7902;49.042;9.092;2023-03-13T02:42:18;98364.66;;;11.74;56.51
15604;BME280;7902;49.042;9.092;2023-03-13T02:44:45;98362.50;;;11.68;57.71
15604;BME280;7902;49.042;9.092;2023-03-13T02:47:18;98353.13;;;11.65;58.32
15604;BME280;7902;49.042;9.092;2023-03-13T02:49:44;98353.41;;;11.62;57.94
15604;BME280;7902;49.042;9.092;2023-03-13T02:52:13;98346.34;;;11.63;58.33
15604;BME280;7902;49.042;9.092;2023-03-13T02:54:43;98348.56;;;11.67;57.84
15604;BME280;7902;49.042;9.092;2023-03-13T02:57:11;98344.50;;;11.63;58.20
15604;BME280;7902;49.042;9.092;2023-03-13T02:59:37;98339.13;;;11.65;58.19
15604;BME280;7902;49.042;9.092;2023-03-13T03:02:03;98338.28;;;11.64;58.42
15604;BME280;7902;49.042;9.092;2023-03-13T03:04:29;98336.22;;;11.68;57.62
15604;BME280;7902;49.042;9.092;2023-03-13T03:06:55;98321.03;;;11.71;56.95
15604;BME280;7902;49.042;9.092;2023-03-13T03:09:22;98330.69;;;11.61;58.73
15604;BME280;7902;49.042;9.092;2023-03-13T03:11:48;98320.59;;;11.57;57.54
15604;BME280;7902;49.042;9.092;2023-03-13T03:14:14;98326.09;;;11.63;57.43
15604;BME280;7902;49.042;9.092;2023-03-13T03:16:40;98320.72;;;11.65;59.17
15604;BME280;7902;49.042;9.092;2023-03-13T03:19:07;98327.09;;;11.62;58.42
15604;BME280;7902;49.042;9.092;2023-03-13T03:21:33;98332.06;;;11.65;59.44
15604;BME280;7902;49.042;9.092;2023-03-13T03:24:00;98327.25;;;11.70;59.12
15604;BME280;7902;49.042;9.092;2023-03-13T03:26:26;98317.97;;;11.66;59.30
15604;BME280;7902;49.042;9.092;2023-03-13T03:28:52;98312.56;;;11.68;58.78
15604;BME280;7902;49.042;9.092;2023-03-13T03:31:18;98302.78;;;11.79;57.74
15604;BME280;7902;49.042;9.092;2023-03-13T03:33:44;98300.69;;;11.73;57.75
15604;BME280;7902;49.042;9.092;2023-03-13T03:36:13;98300.16;;;11.79;58.29
15604;BME280;7902;49.042;9.092;2023-03-13T03:38:40;98295.81;;;11.59;58.69
15604;BME280;7902;49.042;9.092;2023-03-13T03:41:07;98290.47;;;11.80;57.79
15604;BME280;7902;49.042;9.092;2023-03-13T03:43:33;98286.00;;;11.71;58.86
15604;BME280;7902;49.042;9.092;2023-03-13T03:46:00;98286.53;;;11.65;58.84
15604;BME280;7902;49.042;9.092;2023-03-13T03:48:26;98278.38;;;11.68;58.65
15604;BME280;7902;49.042;9.092;2023-03-13T03:50:52;98285.44;;;11.67;57.99
15604;BME280;7902;49.042;9.092;2023-03-13T03:53:18;98279.78;;;11.62;58.67
15604;BME280;7902;49.042;9.092;2023-03-13T03:55:44;98281.81;;;11.68;60.43
15604;BME280;7902;49.042;9.092;2023-03-13T03:58:10;98274.22;;;11.65;59.48
15604;BME280;7902;49.042;9.092;2023-03-13T04:00:36;98275.72;;;11.68;60.33
15604;BME280;7902;49.042;9.092;2023-03-13T04:03:02;98268.69;;;11.68;58.63
15604;BME280;7902;49.042;9.092;2023-03-13T04:05:28;98277.16;;;11.72;59.21
15604;BME280;7902;49.042;9.092;2023-03-13T04:07:54;98270.78;;;11.74;60.26
15604;BME280;7902;49.042;9.092;2023-03-13T04:10:20;98261.50;;;11.70;59.95
15604;BME280;7902;49.042;9.092;2023-03-13T04:12:46;98250.88;;;11.81;58.60
15604;BME280;7902;49.042;9.092;2023-03-13T04:15:12;98251.44;;;11.75;58.86
15604;BME280;7902;49.042;9.092;2023-03-13T04:17:38;98247.25;;;11.73;59.41
15604;BME280;7902;49.042;9.092;2023-03-13T04:20:05;98243.78;;;11.63;58.47
15604;BME280;7902;49.042;9.092;2023-03-13T04:22:32;98245.00;;;11.68;60.37
15604;BME280;7902;49.042;9.092;2023-03-13T04:24:58;98245.47;;;11.73;59.93
15604;BME280;7902;49.042;9.092;2023-03-13T04:27:24;98255.16;;;11.73;59.79
15604;BME280;7902;49.042;9.092;2023-03-13T04:29:50;98261.81;;;11.77;58.30
15604;BME280;7902;49.042;9.092;2023-03-13T04:32:16;98245.34;;;11.84;57.88
15604;BME280;7902;49.042;9.092;2023-03-13T04:34:42;98244.78;;;11.81;58.87
15604;BME280;7902;49.042;9.092;2023-03-13T04:37:08;98246.16;;;11.85;58.73
15604;BME280;7902;49.042;9.092;2023-03-13T04:39:34;98244.50;;;11.84;58.81
15604;BME280;7902;49.042;9.092;2023-03-13T04:42:00;98241.72;;;11.85;59.01
15604;BME280;7902;49.042;9.092;2023-03-13T04:44:26;98242.81;;;11.93;59.77
15604;BME280;7902;49.042;9.092;2023-03-13T04:46:52;98244.78;;;11.91;61.33
15604;BME280;7902;49.042;9.092;2023-03-13T04:49:18;98253.34;;;11.93;60.33
15604;BME280;7902;49.042;9.092;2023-03-13T04:51:44;98248.25;;;11.91;59.75
15604;BME280;7902;49.042;9.092;2023-03-13T04:54:10;98248.38;;;11.90;59.60
15604;BME280;7902;49.042;9.092;2023-03-13T04:56:36;98243.94;;;12.00;61.77
15604;BME280;7902;49.042;9.092;2023-03-13T04:59:02;98246.41;;;11.92;60.70
15604;BME280;7902;49.042;9.092;2023-03-13T05:01:29;98247.94;;;11.94;60.80
15604;BME280;7902;49.042;9.092;2023-03-13T05:03:54;98241.97;;;12.11;61.46
15604;BME280;7902;49.042;9.092;2023-03-13T05:06:21;98247.22;;;12.11;62.33
15604;BME280;7902;49.042;9.092;2023-03-13T05:08:46;98235.84;;;12.11;59.03
15604;BME280;7902;49.042;9.092;2023-03-13T05:11:12;98233.94;;;12.13;58.41
15604;BME280;7902;49.042;9.092;2023-03-13T05:13:38;98227.84;;;12.12;59.11
15604;BME280;7902;49.042;9.092;2023-03-13T05:16:04;98229.22;;;12.07;60.98
15604;BME280;7902;49.042;9.092;2023-03-13T05:18:31;98221.75;;;12.12;58.28
15604;BME280;7902;49.042;9.092;2023-03-13T05:20:56;98224.50;;;12.10;60.47
15604;BME280;7902;49.042;9.092;2023-03-13T05:23:22;98227.94;;;12.20;60.42
15604;BME280;7902;49.042;9.092;2023-03-13T05:25:48;98217.00;;;12.15;61.61
15604;BME280;7902;49.042;9.092;2023-03-13T05:28:14;98215.91;;;12.18;58.85
15604;BME280;7902;49.042;9.092;2023-03-13T05:30:40;98223.34;;;12.32;59.20
15604;BME280;7902;49.042;9.092;2023-03-13T05:33:06;98213.41;;;12.16;58.50
15604;BME280;7902;49.042;9.092;2023-03-13T05:35:32;98216.16;;;12.24;59.84
15604;BME280;7902;49.042;9.092;2023-03-13T05:37:58;98213.94;;;12.20;59.50
15604;BME280;7902;49.042;9.092;2023-03-13T05:40:24;98206.75;;;12.22;59.65
15604;BME280;7902;49.042;9.092;2023-03-13T05:42:50;98208.16;;;12.16;60.81
15604;BME280;7902;49.042;9.092;2023-03-13T05:45:16;98211.06;;;12.23;61.76
15604;BME280;7902;49.042;9.092;2023-03-13T05:47:42;98213.69;;;12.23;62.63
15604;BME280;7902;49.042;9.092;2023-03-13T05:50:08;98215.28;;;12.33;61.19
15604;BME280;7902;49.042;9.092;2023-03-13T05:52:34;98219.72;;;12.43;60.72
15604;BME280;7902;49.042;9.092;2023-03-13T05:55:00;98216.41;;;12.41;61.49
15604;BME280;7902;49.042;9.092;2023-03-13T05:57:26;98209.88;;;12.45;60.01
15604;BME280;7902;49.042;9.092;2023-03-13T05:59:53;98214.59;;;12.41;59.97
15604;BME280;7902;49.042;9.092;2023-03-13T06:02:19;98207.25;;;12.35;59.91
15604;BME280;7902;49.042;9.092;2023-03-13T06:04:46;98210.72;;;12.36;59.90
15604;BME280;7902;49.042;9.092;2023-03-13T06:07:12;98200.91;;;12.38;59.21
15604;BME280;7902;49.042;9.092;2023-03-13T06:09:37;98200.34;;;12.34;59.25
15604;BME280;7902;49.042;9.092;2023-03-13T06:12:10;98196.84;;;12.43;58.64
15604;BME280;7902;49.042;9.092;2023-03-13T06:14:36;98203.22;;;12.41;61.39
15604;BME280;7902;49.042;9.092;2023-03-13T06:17:03;98203.31;;;12.49;60.98
15604;BME280;7902;49.042;9.092;2023-03-13T06:19:30;98198.38;;;12.46;58.68
15604;BME280;7902;49.042;9.092;2023-03-13T06:21:56;98192.84;;;12.39;57.84
15604;BME280;7902;49.042;9.092;2023-03-13T06:24:22;98204.47;;;12.46;61.08
15604;BME280;7902;49.042;9.092;2023-03-13T06:26:48;98197.22;;;12.48;60.03
15604;BME280;7902;49.042;9.092;2023-03-13T06:29:15;98194.91;;;12.45;61.09
15604;BME280;7902;49.042;9.092;2023-03-13T06:31:41;98194.16;;;12.53;58.08
15604;BME280;7902;49.042;9.092;2023-03-13T06:34:12;98200.56;;;12.50;58.18
15604;BME280;7902;49.042;9.092;2023-03-13T06:36:38;98199.19;;;12.46;57.47
15604;BME280;7902;49.042;9.092;2023-03-13T06:39:04;98198.03;;;12.58;56.65
15604;BME280;7902;49.042;9.092;2023-03-13T06:41:30;98208.28;;;12.61;56.25
15604;BME280;7902;49.042;9.092;2023-03-13T06:43:56;98211.88;;;12.60;56.59
15604;BME280;7902;49.042;9.092;2023-03-13T06:46:23;98208.28;;;12.61;57.29
15604;BME280;7902;49.042;9.092;2023-03-13T06:48:49;98211.59;;;12.63;56.52
15604;BME280;7902;49.042;9.092;2023-03-13T06:51:17;98211.59;;;12.63;55.84
15604;BME280;7902;49.042;9.092;2023-03-13T06:53:45;98217.44;;;12.57;56.76
15604;BME280;7902;49.042;9.092;2023-03-13T06:56:11;98217.44;;;12.57;58.60
15604;BME280;7902;49.042;9.092;2023-03-13T06:58:36;98219.69;;;12.52;63.17
15604;BME280;7902;49.042;9.092;2023-03-13T07:01:07;98226.13;;;12.67;59.74
15604;BME280;7902;49.042;9.092;2023-03-13T07:03:34;98224.22;;;12.60;58.63
15604;BME280;7902;49.042;9.092;2023-03-13T07:06:00;98242.66;;;12.60;60.33
15604;BME280;7902;49.042;9.092;2023-03-13T07:08:27;98232.69;;;12.54;61.59
15604;BME280;7902;49.042;9.092;2023-03-13T07:10:58;98231.78;;;12.72;58.23
15604;BME280;7902;49.042;9.092;2023-03-13T07:13:24;98224.09;;;12.61;61.04
15604;BME280;7902;49.042;9.092;2023-03-13T07:15:50;98214.66;;;12.59;59.92
15604;BME280;7902;49.042;9.092;2023-03-13T07:18:16;98216.28;;;12.69;61.20
15604;BME280;7902;49.042;9.092;2023-03-13T07:20:42;98224.84;;;12.71;57.88
15604;BME280;7902;49.042;9.092;2023-03-13T07:23:08;98222.03;;;12.83;58.59
15604;BME280;7902;49.042;9.092;2023-03-13T07:25:34;98209.16;;;12.80;57.96
15604;BME280;7902;49.042;9.092;2023-03-13T07:28:00;98207.19;;;12.82;57.97
15604;BME280;7902;49.042;9.092;2023-03-13T07:30:27;98200.13;;;12.82;57.25
15604;BME280;7902;49.042;9.092;2023-03-13T07:32:53;98192.75;;;12.86;57.37
15604;BME280;7902;49.042;9.092;2023-03-13T07:35:19;98181.41;;;12.85;58.73
15604;BME280;7902;49.042;9.092;2023-03-13T07:37:44;98184.03;;;12.85;61.75
15604;BME280;7902;49.042;9.092;2023-03-13T07:40:11;98175.44;;;12.83;64.60
15604;BME280;7902;49.042;9.092;2023-03-13T07:42:40;98185.47;;;12.80;62.90
15604;BME280;7902;49.042;9.092;2023-03-13T07:45:07;98180.06;;;12.99;59.40
15604;BME280;7902;49.042;9.092;2023-03-13T07:47:34;98189.44;;;12.84;61.43
15604;BME280;7902;49.042;9.092;2023-03-13T07:50:00;98184.19;;;13.01;60.60
15604;BME280;7902;49.042;9.092;2023-03-13T07:52:26;98184.50;;;12.98;60.90
15604;BME280;7902;49.042;9.092;2023-03-13T07:54:53;98181.53;;;13.11;60.46
15604;BME280;7902;49.042;9.092;2023-03-13T07:57:19;98181.03;;;12.98;59.92
15604;BME280;7902;49.042;9.092;2023-03-13T07:59:45;98167.09;;;13.05;60.33
15604;BME280;7902;49.042;9.092;2023-03-13T08:02:12;98152.06;;;12.98;61.06
15604;BME280;7902;49.042;9.092;2023-03-13T08:04:41;98138.56;;;13.01;59.46
15604;BME280;7902;49.042;9.092;2023-03-13T08:07:10;98158.69;;;13.02;62.13
15604;BME280;7902;49.042;9.092;2023-03-13T08:09:36;98148.94;;;13.12;60.92
15604;BME280;7902;49.042;9.092;2023-03-13T08:12:03;98150.19;;;13.08;60.61
15604;BME280;7902;49.042;9.092;2023-03-13T08:14:29;98135.44;;;13.15;60.23
15604;BME280;7902;49.042;9.092;2023-03-13T08:16:54;98133.34;;;13.18;59.65
15604;BME280;7902;49.042;9.092;2023-03-13T08:19:20;98146.06;;;13.23;59.48
15604;BME280;7902;49.042;9.092;2023-03-13T08:21:46;98148.28;;;13.28;58.55
15604;BME280;7902;49.042;9.092;2023-03-13T08:24:12;98145.47;;;13.29;60.16
15604;BME280;7902;49.042;9.092;2023-03-13T08:26:40;98154.22;;;13.30;60.40
15604;BME280;7902;49.042;9.092;2023-03-13T08:29:11;98160.16;;;13.32;58.92
15604;BME280;7902;49.042;9.092;2023-03-13T08:31:45;98160.16;;;13.32;59.79
15604;BME280;7902;49.042;9.092;2023-03-13T08:34:13;98161.72;;;13.25;61.96
15604;BME280;7902;49.042;9.092;2023-03-13T08:36:40;98161.72;;;13.25;62.77
15604;BME280;7902;49.042;9.092;2023-03-13T08:39:10;98161.56;;;13.44;60.93
15604;BME280;7902;49.042;9.092;2023-03-13T08:41:37;98153.38;;;13.29;61.87
15604;BME280;7902;49.042;9.092;2023-03-13T08:44:05;98146.97;;;13.49;61.47
15604;BME280;7902;49.042;9.092;2023-03-13T08:46:34;98146.44;;;13.46;61.46
15604;BME280;7902;49.042;9.092;2023-03-13T08:49:01;98156.44;;;13.42;60.57
15604;BME280;7902;49.042;9.092;2023-03-13T08:51:27;98140.53;;;13.52;60.61
15604;BME280;7902;49.042;9.092;2023-03-13T08:53:54;98146.13;;;13.49;62.19
15604;BME280;7902;49.042;9.092;2023-03-13T08:56:22;98141.09;;;13.55;61.45
15604;BME280;7902;49.042;9.092;2023-03-13T08:58:54;98152.22;;;13.67;63.35
15604;BME280;7902;49.042;9.092;2023-03-13T09:01:23;98150.09;;;13.71;61.45
15604;BME280;7902;49.042;9.092;2023-03-13T09:03:49;98143.47;;;13.67;61.12
15604;BME280;7902;49.042;9.092;2023-03-13T09:06:16;98151.47;;;13.75;62.92
15604;BME280;7902;49.042;9.092;2023-03-13T09:08:42;98149.97;;;13.98;62.46
15604;BME280;7902;49.042;9.092;2023-03-13T09:11:11;98145.84;;;14.03;60.32
15604;BME280;7902;49.042;9.092;2023-03-13T09:13:40;98142.22;;;14.30;62.31
15604;BME280;7902;49.042;9.092;2023-03-13T09:16:09;98131.25;;;14.17;60.81
15604;BME280;7902;49.042;9.092;2023-03-13T09:18:37;98137.22;;;14.27;60.25
15604;BME280;7902;49.042;9.092;2023-03-13T09:21:09;98145.97;;;14.54;62.20
15604;BME280;7902;49.042;9.092;2023-03-13T09:23:36;98134.22;;;14.40;60.15
15604;BME280;7902;49.042;9.092;2023-03-13T09:26:02;98143.72;;;14.75;62.12
15604;BME280;7902;49.042;9.092;2023-03-13T09:28:28;98154.97;;;14.69;62.07
15604;BME280;7902;49.042;9.092;2023-03-13T09:30:54;98142.63;;;14.85;60.08
15604;BME280;7902;49.042;9.092;2023-03-13T09:33:21;98152.69;;;14.90;60.49
15604;BME280;7902;49.042;9.092;2023-03-13T09:35:50;98141.50;;;15.04;59.71
15604;BME280;7902;49.042;9.092;2023-03-13T09:38:17;98144.13;;;14.96;59.32
15604;BME280;7902;49.042;9.092;2023-03-13T09:40:48;98129.25;;;15.03;59.48
15604;BME280;7902;49.042;9.092;2023-03-13T09:46:05;98119.19;;;14.99;59.51
15604;BME280;7902;49.042;9.092;2023-03-13T09:48:40;98118.06;;;15.25;58.32
15604;BME280;7902;49.042;9.092;2023-03-13T09:53:55;98109.13;;;15.18;58.60
15604;BME280;7902;49.042;9.092;2023-03-13T09:56:25;98106.16;;;15.37;59.61
15604;BME280;7902;49.042;9.092;2023-03-13T09:58:58;98114.13;;;15.54;58.75
15604;BME280;7902;49.042;9.092;2023-03-13T10:01:29;98113.47;;;15.52;58.74
15604;BME280;7902;49.042;9.092;2023-03-13T10:04:07;98111.50;;;15.54;57.47
15604;BME280;7902;49.042;9.092;2023-03-13T10:06:41;98110.28;;;15.40;58.66
15604;BME280;7902;49.042;9.092;2023-03-13T10:09:20;98092.63;;;15.57;58.52
15604;BME280;7902;49.042;9.092;2023-03-13T10:12:06;98097.56;;;15.68;58.01
15604;BME280;7902;49.042;9.092;2023-03-13T10:14:41;98094.78;;;15.61;59.08
15604;BME280;7902;49.042;9.092;2023-03-13T10:17:21;98082.19;;;15.71;57.81
15604;BME280;7902;49.042;9.092;2023-03-13T10:19:57;98088.97;;;15.33;57.72
15604;BME280;7902;49.042;9.092;2023-03-13T10:22:26;98094.56;;;15.79;57.10
15604;BME280;7902;49.042;9.092;2023-03-13T10:25:26;98061.63;;;15.90;57.43
15604;BME280;7902;49.042;9.092;2023-03-13T10:27:52;98079.81;;;16.01;57.86
15604;BME280;7902;49.042;9.092;2023-03-13T10:30:23;98068.09;;;15.87;57.05
15604;BME280;7902;49.042;9.092;2023-03-13T10:32:49;98074.63;;;16.15;57.91
15604;BME280;7902;49.042;9.092;2023-03-13T10:35:32;98078.19;;;16.31;57.28
15604;BME280;7902;49.042;9.092;2023-03-13T10:38:09;98078.25;;;16.22;57.65
15604;BME280;7902;49.042;9.092;2023-03-13T10:40:36;98064.72;;;16.01;56.82
15604;BME280;7902;49.042;9.092;2023-03-13T10:45:37;98079.91;;;16.15;56.61
15604;BME280;7902;49.042;9.092;2023-03-13T10:48:20;98053.94;;;16.19;56.14
15604;BME280;7902;49.042;9.092;2023-03-13T10:50:49;98055.34;;;16.30;56.68
15604;BME280;7902;49.042;9.092;2023-03-13T10:56:11;98067.50;;;16.55;56.10
15604;BME280;7902;49.042;9.092;2023-03-13T10:58:49;98057.88;;;16.54;55.24
15604;BME280;7902;49.042;9.092;2023-03-13T11:03:50;98053.56;;;16.53;55.57
15604;BME280;7902;49.042;9.092;2023-03-13T11:06:26;98044.75;;;16.38;55.16
15604;BME280;7902;49.042;9.092;2023-03-13T11:09:02;98049.94;;;16.62;55.66
15604;BME280;7902;49.042;9.092;2023-03-13T11:11:28;98045.94;;;16.27;55.60
15604;BME280;7902;49.042;9.092;2023-03-13T11:14:28;98039.59;;;16.05;54.93
15604;BME280;7902;49.042;9.092;2023-03-13T11:19:29;98022.25;;;16.25;56.08
15604;BME280;7902;49.042;9.092;2023-03-13T11:22:10;98015.25;;;16.41;55.64
15604;BME280;7902;49.042;9.092;2023-03-13T11:24:48;98015.19;;;16.49;56.14
15604;BME280;7902;49.042;9.092;2023-03-13T11:32:37;97992.34;;;16.17;55.74
15604;BME280;7902;49.042;9.092;2023-03-13T11:35:17;97996.09;;;16.31;56.15
15604;BME280;7902;49.042;9.092;2023-03-13T11:37:44;97993.31;;;16.24;56.37
15604;BME280;7902;49.042;9.092;2023-03-13T11:40:17;97997.81;;;16.46;57.52
15604;BME280;7902;49.042;9.092;2023-03-13T11:42:58;97987.25;;;16.69;56.34
15604;BME280;7902;49.042;9.092;2023-03-13T11:48:35;97970.81;;;16.51;57.04
15604;BME280;7902;49.042;9.092;2023-03-13T11:55:27;97953.22;;;16.58;55.28
15604;BME280;7902;49.042;9.092;2023-03-13T11:57:30;97944.16;;;16.75;56.36
15604;BME280;7902;49.042;9.092;2023-03-13T12:00:02;97939.56;;;16.69;56.16
15604;BME280;7902;49.042;9.092;2023-03-13T12:02:38;97931.31;;;16.64;54.79
15604;BME280;7902;49.042;9.092;2023-03-13T12:05:09;97918.59;;;16.59;55.99
15604;BME280;7902;49.042;9.092;2023-03-13T12:07:40;97914.25;;;16.66;54.85
15604;BME280;7902;49.042;9.092;2023-03-13T12:10:26;97923.41;;;16.56;55.68
15604;BME280;7902;49.042;9.092;2023-03-13T12:13:00;97920.63;;;16.72;56.11
15604;BME280;7902;49.042;9.092;2023-03-13T12:15:37;97911.09;;;16.63;55.68
15604;BME280;7902;49.042;9.092;2023-03-13T12:21:06;97888.38;;;16.46;55.31
15604;BME280;7902;49.042;9.092;2023-03-13T12:23:45;97876.56;;;16.48;56.00
15604;BME280;7902;49.042;9.092;2023-03-13T12:26:18;97876.06;;;16.30;56.82
15604;BME280;7902;49.042;9.092;2023-03-13T12:34:55;97842.28;;;16.32;56.41
15604;BME280;7902;49.042;9.092;2023-03-13T12:37:32;97844.75;;;16.34;57.05
15604;BME280;7902;49.042;9.092;2023-03-13T12:40:26;97823.75;;;16.32;55.90
15604;BME280;7902;49.042;9.092;2023-03-13T12:42:57;97820.91;;;16.34;56.48
15604;BME280;7902;49.042;9.092;2023-03-13T12:45:27;97811.97;;;16.49;55.79
15604;BME280;7902;49.042;9.092;2023-03-13T12:48:21;97804.13;;;16.41;57.21
15604;BME280;7902;49.042;9.092;2023-03-13T12:51:19;97799.72;;;16.48;56.53
15604;BME280;7902;49.042;9.092;2023-03-13T12:59:21;97779.88;;;16.67;56.02
15604;BME280;7902;49.042;9.092;2023-03-13T13:01:52;97770.97;;;16.45;56.24
15604;BME280;7902;49.042;9.092;2023-03-13T13:04:22;97767.59;;;16.51;57.23
15604;BME280;7902;49.042;9.092;2023-03-13T13:09:23;97763.81;;;16.68;57.10
15604;BME280;7902;49.042;9.092;2023-03-13T13:11:50;97752.53;;;16.96;55.82
15604;BME280;7902;49.042;9.092;2023-03-13T13:16:45;97732.00;;;16.68;55.65
15604;BME280;7902;49.042;9.092;2023-03-13T13:24:55;97713.88;;;16.72;56.02
15604;BME280;7902;49.042;9.092;2023-03-13T13:32:35;97692.03;;;16.99;54.70
15604;BME280;7902;49.042;9.092;2023-03-13T13:37:34;97686.50;;;17.16;55.50
15604;BME280;7902;49.042;9.092;2023-03-13T13:40:26;97678.59;;;17.37;55.88
15604;BME280;7902;49.042;9.092;2023-03-13T13:43:00;97674.41;;;17.28;55.14
15604;BME280;7902;49.042;9.092;2023-03-13T13:45:29;97681.16;;;16.94;55.55
15604;BME280;7902;49.042;9.092;2023-03-13T13:48:24;97671.59;;;17.15;55.73
15604;BME280;7902;49.042;9.092;2023-03-13T13:53:45;97658.09;;;17.31;55.85
15604;BME280;7902;49.042;9.092;2023-03-13T13:58:59;97644.28;;;17.78;54.26
15604;BME280;7902;49.042;9.092;2023-03-13T14:01:27;97640.31;;;17.67;54.87
15604;BME280;7902;49.042;9.092;2023-03-13T14:04:03;97633.34;;;17.87;53.84
15604;BME280;7902;49.042;9.092;2023-03-13T14:06:34;97624.81;;;18.26;54.46
15604;BME280;7902;49.042;9.092;2023-03-13T14:09:21;97627.44;;;17.64;55.56
15604;BME280;7902;49.042;9.092;2023-03-13T14:11:51;97603.50;;;17.43;55.29
15604;BME280;7902;49.042;9.092;2023-03-13T14:14:19;97596.38;;;18.20;54.65
15604;BME280;7902;49.042;9.092;2023-03-13T14:16:47;97581.59;;;18.52;53.58
15604;BME280;7902;49.042;9.092;2023-03-13T14:22:00;97577.72;;;17.58;54.51
15604;BME280;7902;49.042;9.092;2023-03-13T14:24:27;97577.25;;;17.69;54.65
15604;BME280;7902;49.042;9.092;2023-03-13T14:26:53;97564.34;;;17.45;55.24
15604;BME280;7902;49.042;9.092;2023-03-13T14:29:19;97567.78;;;17.60;55.16
15604;BME280;7902;49.042;9.092;2023-03-13T14:31:53;97563.59;;;17.51;55.71